Time;durP1;ratioP1;P1;durP2;ratioP2;P2;SDS_P1;SDS_P2;PMS_P1;PMS_P2;Temp;Humidity;BMP_temperature;BMP_pressure;BME280_temperature;BME280_humidity;BME280_pressure;Samples;Min_cycle;Max_cycle;Signal;HPM_P1;HPM_P2
2022/04/21 00:00:27;;;;;;;5.80;2.50;;;;;;;;;;5053547;28;20503;-89
2022/04/21 00:02:53;;;;;;;6.07;2.80;;;;;;;;;;5067770;28;20041;-89
2022/04/21 00:05:20;;;;;;;5.90;2.83;;;;;;;;;;5064709;28;20045;-89
2022/04/21 00:07:48;;;;;;;5.05;2.30;;;;;;;;;;5057677;28;20591;-89
2022/04/21 00:10:17;;;;;;;4.50;3.20;;;;;;;;;;5057573;28;20049;-89
2022/04/21 00:12:44;;;;;;;7.15;3.22;;;;;;;;;;5059115;28;20431;-89
2022/04/21 00:15:11;;;;;;;4.75;2.78;;;;;;;;;;5064960;28;20045;-89
2022/04/21 00:17:41;;;;;;;5.22;3.05;;;;;;;;;;5067926;28;20048;-89
2022/04/21 00:20:09;;;;;;;5.07;2.70;;;;;;;;;;5058340;28;20052;-89
2022/04/21 00:25:21;;;;;;;4.18;2.50;;;;;;;;;;5060074;28;20051;-89
2022/04/21 00:27:48;;;;;;;5.65;2.97;;;;;;;;;;5066484;28;20047;-89
2022/04/21 00:30:17;;;;;;;5.78;3.00;;;;;;;;;;5065426;28;20464;-89
2022/04/21 00:32:44;;;;;;;4.72;2.60;;;;;;;;;;5057670;28;20452;-89
2022/04/21 00:35:12;;;;;;;5.55;2.92;;;;;;;;;;5064763;28;20053;-89
2022/04/21 00:37:49;;;;;;;7.22;2.95;;;;;;;;;;5064736;28;20157;-89
2022/04/21 00:40:17;;;;;;;4.18;2.33;;;;;;;;;;5063646;28;20596;-89
2022/04/21 00:42:46;;;;;;;6.35;3.47;;;;;;;;;;5069885;28;20052;-89
2022/04/21 00:45:13;;;;;;;5.90;2.90;;;;;;;;;;5057619;28;20070;-89
2022/04/21 00:47:45;;;;;;;4.70;2.67;;;;;;;;;;5058765;28;20043;-89
2022/04/21 00:50:15;;;;;;;6.05;3.13;;;;;;;;;;5058588;28;20045;-88
2022/04/21 00:52:41;;;;;;;5.22;2.80;;;;;;;;;;5063543;28;20047;-88
2022/04/21 00:55:09;;;;;;;5.22;3.00;;;;;;;;;;5066210;28;20054;-89
2022/04/21 00:57:37;;;;;;;5.85;3.10;;;;;;;;;;5075478;28;20477;-89
2022/04/21 01:00:07;;;;;;;4.47;2.83;;;;;;;;;;5054395;28;20064;-89
2022/04/21 01:02:53;;;;;;;7.07;3.50;;;;;;;;;;5065171;28;20048;-89
2022/04/21 01:05:28;;;;;;;5.07;2.78;;;;;;;;;;5063720;28;20041;-89
2022/04/21 01:07:56;;;;;;;5.50;3.13;;;;;;;;;;5060060;28;20451;-89
2022/04/21 01:10:23;;;;;;;6.10;3.35;;;;;;;;;;5066149;28;20319;-89
2022/04/21 01:12:50;;;;;;;5.72;3.08;;;;;;;;;;5056101;28;20040;-89
2022/04/21 01:15:18;;;;;;;4.65;2.85;;;;;;;;;;5062422;28;20052;-89
2022/04/21 01:17:45;;;;;;;8.85;3.70;;;;;;;;;;5064333;28;20055;-89
2022/04/21 01:20:15;;;;;;;5.22;2.88;;;;;;;;;;5056889;28;20052;-89
2022/04/21 01:22:42;;;;;;;7.25;3.55;;;;;;;;;;5066360;28;20055;-89
2022/04/21 01:25:08;;;;;;;5.28;3.00;;;;;;;;;;5067166;28;20071;-89
2022/04/21 01:27:37;;;;;;;5.18;3.20;;;;;;;;;;5076281;28;20058;-89
2022/04/21 01:30:05;;;;;;;5.93;3.22;;;;;;;;;;5062208;28;20485;-89
2022/04/21 01:32:35;;;;;;;6.93;3.45;;;;;;;;;;5065525;28;20516;-89
2022/04/21 01:35:03;;;;;;;5.53;3.47;;;;;;;;;;5062635;28;20079;-89
2022/04/21 01:42:59;;;;;;;6.05;3.60;;;;;;;;;;5048752;28;20056;-89
2022/04/21 01:45:25;;;;;;;6.90;3.22;;;;;;;;;;5061471;28;20437;-89
2022/04/21 01:47:52;;;;;;;8.02;3.67;;;;;;;;;;5064658;28;20063;-88
2022/04/21 01:50:18;;;;;;;5.97;3.35;;;;;;;;;;5055067;28;20680;-89
2022/04/21 01:52:46;;;;;;;5.22;3.38;;;;;;;;;;5061354;28;20057;-89
2022/04/21 01:55:13;;;;;;;6.88;3.75;;;;;;;;;;5063848;28;20044;-89
2022/04/21 01:57:39;;;;;;;7.70;3.80;;;;;;;;;;5060764;28;20044;-89
2022/04/21 02:00:07;;;;;;;6.53;3.55;;;;;;;;;;5061807;28;20139;-89
2022/04/21 02:02:34;;;;;;;11.00;4.22;;;;;;;;;;5062476;28;20041;-89
2022/04/21 02:05:00;;;;;;;6.88;4.20;;;;;;;;;;5058407;28;20045;-89
2022/04/21 02:07:27;;;;;;;9.20;4.60;;;;;;;;;;5063443;28;20052;-89
2022/04/21 02:12:58;;;;;;;7.25;3.72;;;;;;;;;;5063796;28;20037;-89
2022/04/21 02:15:25;;;;;;;8.38;4.10;;;;;;;;;;5054517;28;20057;-89
2022/04/21 02:17:51;;;;;;;8.48;4.25;;;;;;;;;;5063948;28;20049;-89
2022/04/21 02:20:18;;;;;;;7.25;3.75;;;;;;;;;;5064315;28;20044;-89
2022/04/21 02:22:46;;;;;;;7.97;4.28;;;;;;;;;;5061060;28;20074;-89
2022/04/21 02:25:14;;;;;;;8.15;3.83;;;;;;;;;;5051837;28;20045;-89
2022/04/21 02:27:42;;;;;;;5.95;3.50;;;;;;;;;;5055926;28;20681;-89
2022/04/21 02:30:12;;;;;;;7.53;3.42;;;;;;;;;;5061542;28;20044;-89
2022/04/21 02:32:39;;;;;;;7.10;3.60;;;;;;;;;;5071033;28;20044;-89
2022/04/21 02:35:06;;;;;;;6.90;4.35;;;;;;;;;;5061530;28;20041;-89
2022/04/21 02:37:36;;;;;;;5.90;3.35;;;;;;;;;;5071860;28;20086;-89
2022/04/21 02:40:03;;;;;;;6.82;3.95;;;;;;;;;;5068971;28;20078;-89
2022/04/21 02:42:29;;;;;;;6.72;4.35;;;;;;;;;;5061561;28;20048;-89
2022/04/21 02:44:56;;;;;;;6.15;3.67;;;;;;;;;;5074680;28;20081;-89
2022/04/21 02:47:24;;;;;;;6.10;3.72;;;;;;;;;;5058070;28;20055;-89
2022/04/21 02:49:51;;;;;;;7.70;3.90;;;;;;;;;;5067262;28;20673;-89
2022/04/21 02:52:18;;;;;;;7.22;4.60;;;;;;;;;;5064192;28;20295;-89
2022/04/21 02:57:30;;;;;;;7.88;3.80;;;;;;;;;;5060293;28;20070;-89
2022/04/21 02:59:58;;;;;;;7.07;4.15;;;;;;;;;;5054248;28;20048;-90
2022/04/21 03:02:26;;;;;;;8.32;4.35;;;;;;;;;;5067542;28;20045;-89
2022/04/21 03:04:54;;;;;;;7.07;4.18;;;;;;;;;;5059745;28;20048;-89
2022/04/21 03:07:22;;;;;;;7.32;3.92;;;;;;;;;;5066102;28;20479;-89
2022/04/21 03:09:48;;;;;;;8.55;4.50;;;;;;;;;;5066417;28;20508;-89
2022/04/21 03:12:15;;;;;;;12.23;5.13;;;;;;;;;;5064726;28;20040;-89
2022/04/21 03:14:43;;;;;;;7.90;3.95;;;;;;;;;;5079233;28;20401;-89
2022/04/21 03:17:12;;;;;;;6.53;3.97;;;;;;;;;;5058475;28;20049;-89
2022/04/21 03:19:40;;;;;;;6.28;3.33;;;;;;;;;;5054637;28;20049;-89
2022/04/21 03:24:54;;;;;;;7.15;3.83;;;;;;;;;;5072374;28;20233;-89
2022/04/21 03:27:20;;;;;;;10.57;4.60;;;;;;;;;;5069799;28;20036;-89
2022/04/21 03:29:47;;;;;;;6.55;3.78;;;;;;;;;;5070825;28;20052;-89
2022/04/21 03:32:14;;;;;;;5.93;3.40;;;;;;;;;;5065089;28;20064;-89
2022/04/21 03:34:43;;;;;;;11.63;4.72;;;;;;;;;;5067919;28;20044;-89
2022/04/21 03:37:11;;;;;;;9.05;4.35;;;;;;;;;;5068573;28;20058;-88
2022/04/21 03:39:38;;;;;;;8.95;4.82;;;;;;;;;;5065437;28;20272;-88
2022/04/21 03:42:05;;;;;;;8.35;4.80;;;;;;;;;;5057255;28;20064;-89
2022/04/21 03:44:32;;;;;;;9.07;5.18;;;;;;;;;;5066172;28;20052;-88
2022/04/21 03:46:59;;;;;;;8.07;4.25;;;;;;;;;;5067602;28;20052;-88
2022/04/21 03:49:27;;;;;;;9.35;4.88;;;;;;;;;;5065124;28;20044;-89
2022/04/21 03:51:55;;;;;;;8.15;4.07;;;;;;;;;;5062941;28;20041;-89
2022/04/21 03:54:22;;;;;;;9.07;4.85;;;;;;;;;;5069459;28;20612;-88
2022/04/21 03:56:49;;;;;;;7.07;3.83;;;;;;;;;;5069411;28;20120;-89
2022/04/21 03:59:15;;;;;;;8.07;4.57;;;;;;;;;;5063309;28;20044;-88
2022/04/21 04:01:42;;;;;;;9.25;5.03;;;;;;;;;;5061704;28;20055;-89
2022/04/21 04:04:08;;;;;;;7.07;4.32;;;;;;;;;;5062637;28;20052;-89
2022/04/21 04:12:07;;;;;;;6.50;3.80;;;;;;;;;;5071171;28;20048;-89
2022/04/21 04:14:34;;;;;;;7.40;4.32;;;;;;;;;;5060486;28;20037;-89
2022/04/21 04:17:00;;;;;;;8.10;4.63;;;;;;;;;;5068369;28;20041;-89
2022/04/21 04:19:27;;;;;;;7.93;4.05;;;;;;;;;;5064697;28;20067;-89
2022/04/21 04:21:53;;;;;;;7.85;3.92;;;;;;;;;;5061908;28;20064;-89
2022/04/21 04:24:21;;;;;;;6.13;3.40;;;;;;;;;;5060620;28;20055;-89
2022/04/21 04:26:48;;;;;;;8.55;4.63;;;;;;;;;;5064097;28;20036;-88
2022/04/21 04:29:22;;;;;;;8.23;4.53;;;;;;;;;;5064143;28;20069;-89
2022/04/21 04:31:49;;;;;;;10.65;4.28;;;;;;;;;;5064468;28;20048;-89
2022/04/21 04:34:15;;;;;;;8.10;4.25;;;;;;;;;;5064981;28;20590;-89
2022/04/21 04:36:43;;;;;;;7.68;4.38;;;;;;;;;;5066687;28;20047;-89
2022/04/21 04:39:10;;;;;;;8.13;4.25;;;;;;;;;;5065165;28;20048;-89
2022/04/21 04:44:22;;;;;;;8.18;5.10;;;;;;;;;;5053182;28;20060;-88
2022/04/21 04:46:47;;;;;;;7.97;5.00;;;;;;;;;;5056529;28;20147;-89
2022/04/21 04:49:14;;;;;;;12.73;4.93;;;;;;;;;;5063215;28;20053;-89
2022/04/21 04:51:42;;;;;;;12.25;5.10;;;;;;;;;;5058866;28;20050;-89
2022/04/21 04:54:10;;;;;;;11.98;4.80;;;;;;;;;;5064590;28;20119;-88
2022/04/21 04:56:39;;;;;;;9.30;5.00;;;;;;;;;;5072303;28;20053;-89
2022/04/21 04:59:06;;;;;;;9.32;4.57;;;;;;;;;;5060932;28;20058;-89
2022/04/21 05:01:34;;;;;;;8.32;4.32;;;;;;;;;;5064596;28;20431;-88
2022/04/21 05:04:02;;;;;;;12.05;5.10;;;;;;;;;;5062560;28;20059;-88
2022/04/21 05:06:29;;;;;;;7.78;4.88;;;;;;;;;;5059216;28;20121;-89
2022/04/21 05:08:57;;;;;;;10.85;4.90;;;;;;;;;;5060715;28;20589;-88
2022/04/21 05:11:23;;;;;;;12.25;4.93;;;;;;;;;;5053549;28;20442;-89
2022/04/21 05:13:52;;;;;;;9.65;5.22;;;;;;;;;;5056108;28;20051;-88
2022/04/21 05:16:31;;;;;;;11.65;4.60;;;;;;;;;;5053602;28;20051;-89
2022/04/21 05:18:58;;;;;;;14.85;5.30;;;;;;;;;;5064818;28;20056;-88
2022/04/21 05:21:25;;;;;;;10.30;4.90;;;;;;;;;;5058241;28;20037;-88
2022/04/21 05:24:01;;;;;;;13.30;5.72;;;;;;;;;;5065338;28;20045;-89
2022/04/21 05:26:29;;;;;;;8.38;5.22;;;;;;;;;;5049060;28;20068;-89
2022/04/21 05:29:00;;;;;;;15.55;4.90;;;;;;;;;;5068663;28;20051;-89
2022/04/21 05:31:27;;;;;;;8.30;4.57;;;;;;;;;;5068491;28;20052;-89
2022/04/21 05:33:54;;;;;;;16.80;6.47;;;;;;;;;;5062234;28;20057;-89
2022/04/21 05:36:21;;;;;;;10.55;5.13;;;;;;;;;;5066507;28;20044;-88
2022/04/21 05:38:49;;;;;;;10.02;5.60;;;;;;;;;;5065388;28;20055;-89
2022/04/21 05:41:17;;;;;;;14.65;5.50;;;;;;;;;;5063859;28;20066;-88
2022/04/21 05:43:45;;;;;;;11.13;6.05;;;;;;;;;;5063532;28;20400;-87
2022/04/21 05:46:15;;;;;;;8.75;5.05;;;;;;;;;;5065714;28;20052;-87
2022/04/21 05:48:45;;;;;;;9.57;5.35;;;;;;;;;;5063499;28;20059;-87
2022/04/21 05:51:12;;;;;;;10.40;5.72;;;;;;;;;;5063824;28;20871;-87
2022/04/21 05:53:41;;;;;;;13.98;6.45;;;;;;;;;;5063087;28;20451;-87
2022/04/21 05:56:09;;;;;;;15.50;6.30;;;;;;;;;;5080236;28;20121;-87
2022/04/21 05:58:37;;;;;;;10.98;6.43;;;;;;;;;;5077989;28;20521;-88
2022/04/21 06:01:06;;;;;;;11.27;7.05;;;;;;;;;;5065247;28;20512;-88
2022/04/21 06:03:35;;;;;;;12.30;6.15;;;;;;;;;;5065283;28;20056;-87
2022/04/21 06:06:01;;;;;;;19.80;7.07;;;;;;;;;;5063205;28;20053;-87
2022/04/21 06:08:28;;;;;;;11.27;6.10;;;;;;;;;;5067576;28;20048;-87
2022/04/21 06:10:56;;;;;;;9.85;6.13;;;;;;;;;;5052765;28;20049;-87
2022/04/21 06:13:22;;;;;;;9.88;6.80;;;;;;;;;;5069564;28;20556;-88
2022/04/21 06:15:49;;;;;;;11.63;7.53;;;;;;;;;;5053859;28;20055;-87
2022/04/21 06:18:19;;;;;;;11.70;6.70;;;;;;;;;;5066359;28;20053;-87
2022/04/21 06:20:47;;;;;;;12.75;8.60;;;;;;;;;;5054752;28;20061;-87
2022/04/21 06:23:14;;;;;;;13.30;8.13;;;;;;;;;;5049033;28;20061;-87
2022/04/21 06:25:40;;;;;;;10.50;7.53;;;;;;;;;;5067003;28;20083;-87
2022/04/21 06:28:07;;;;;;;15.80;7.22;;;;;;;;;;5070629;28;20059;-88
2022/04/21 06:30:34;;;;;;;13.48;8.23;;;;;;;;;;5064124;28;20053;-87
2022/04/21 06:33:00;;;;;;;12.85;8.23;;;;;;;;;;5067525;28;20048;-88
2022/04/21 06:35:28;;;;;;;14.75;8.45;;;;;;;;;;5059632;28;20087;-88
2022/04/21 06:37:56;;;;;;;14.15;8.98;;;;;;;;;;5057313;28;20037;-87
2022/04/21 06:40:23;;;;;;;12.55;8.00;;;;;;;;;;5053817;28;20051;-87
2022/04/21 06:42:50;;;;;;;12.43;7.72;;;;;;;;;;5081773;28;20044;-87
2022/04/21 06:48:04;;;;;;;12.52;8.30;;;;;;;;;;5060894;28;20206;-87
2022/04/21 06:50:31;;;;;;;15.00;7.38;;;;;;;;;;5064962;28;20601;-87
2022/04/21 06:52:59;;;;;;;10.02;7.70;;;;;;;;;;5051472;28;20379;-87
2022/04/21 06:55:26;;;;;;;10.77;7.80;;;;;;;;;;5055445;28;20047;-87
2022/04/21 06:57:52;;;;;;;11.20;7.63;;;;;;;;;;5066904;28;20047;-87
2022/04/21 07:00:19;;;;;;;11.63;7.30;;;;;;;;;;5065555;28;20055;-87
2022/04/21 07:02:45;;;;;;;11.90;8.52;;;;;;;;;;5051873;28;20071;-87
2022/04/21 07:05:13;;;;;;;12.00;8.23;;;;;;;;;;5066442;28;20564;-87
2022/04/21 07:07:40;;;;;;;13.75;8.00;;;;;;;;;;5059084;28;20683;-87
2022/04/21 07:10:09;;;;;;;11.85;7.47;;;;;;;;;;5059335;28;20056;-87
2022/04/21 07:12:36;;;;;;;11.35;7.53;;;;;;;;;;5059320;28;20048;-87
2022/04/21 07:15:05;;;;;;;11.35;7.43;;;;;;;;;;5065403;28;20064;-88
2022/04/21 07:17:34;;;;;;;11.07;7.43;;;;;;;;;;5052342;28;20056;-86
2022/04/21 07:20:02;;;;;;;11.85;7.95;;;;;;;;;;5059880;28;20052;-87
2022/04/21 07:22:29;;;;;;;12.20;7.72;;;;;;;;;;5062528;28;20049;-88
2022/04/21 07:24:57;;;;;;;12.18;7.53;;;;;;;;;;5069064;28;20044;-88
2022/04/21 07:27:25;;;;;;;12.38;7.63;;;;;;;;;;5062689;28;20045;-88
2022/04/21 07:29:52;;;;;;;10.55;7.63;;;;;;;;;;5066260;28;20060;-88
2022/04/21 07:32:19;;;;;;;11.13;7.10;;;;;;;;;;5070079;28;20064;-88
2022/04/21 07:34:45;;;;;;;13.30;7.80;;;;;;;;;;5069468;28;20455;-88
2022/04/21 07:37:12;;;;;;;10.75;7.22;;;;;;;;;;5067737;28;20059;-88
2022/04/21 07:39:40;;;;;;;11.20;7.63;;;;;;;;;;5069673;28;20050;-87
2022/04/21 07:42:07;;;;;;;11.50;8.52;;;;;;;;;;5067634;28;20045;-87
2022/04/21 07:44:36;;;;;;;10.57;7.75;;;;;;;;;;5061367;28;20056;-87
2022/04/21 07:47:07;;;;;;;12.10;7.82;;;;;;;;;;5069133;28;20143;-87
2022/04/21 07:49:46;;;;;;;13.23;8.73;;;;;;;;;;5069513;28;20055;-88
2022/04/21 07:55:15;;;;;;;10.00;7.50;;;;;;;;;;5061001;28;20123;-87
2022/04/21 07:57:42;;;;;;;14.02;8.00;;;;;;;;;;5069087;28;20113;-88
2022/04/21 08:00:12;;;;;;;11.20;7.45;;;;;;;;;;5065972;28;20045;-88
2022/04/21 08:02:40;;;;;;;9.48;7.18;;;;;;;;;;5052510;28;20041;-87
2022/04/21 08:05:08;;;;;;;9.77;7.72;;;;;;;;;;5070533;28;20061;-88
2022/04/21 08:07:35;;;;;;;11.30;8.00;;;;;;;;;;5070672;28;20086;-87
2022/04/21 08:10:02;;;;;;;11.35;7.75;;;;;;;;;;5069167;28;20524;-86
2022/04/21 08:12:30;;;;;;;10.15;7.50;;;;;;;;;;5071002;28;20500;-86
2022/04/21 08:14:56;;;;;;;8.73;7.10;;;;;;;;;;5086930;28;20448;-86
2022/04/21 08:17:24;;;;;;;10.07;7.53;;;;;;;;;;5065421;28;20045;-87
2022/04/21 08:19:51;;;;;;;10.48;7.40;;;;;;;;;;5069924;28;20044;-86
2022/04/21 08:22:17;;;;;;;10.35;7.03;;;;;;;;;;5057552;28;20478;-86
2022/04/21 08:33:06;;;;;;;8.15;6.13;;;;;;;;;;5065500;28;20468;-87
2022/04/21 08:35:32;;;;;;;9.45;6.95;;;;;;;;;;5065616;28;20062;-86
2022/04/21 08:37:59;;;;;;;10.27;6.78;;;;;;;;;;5053430;28;20056;-86
2022/04/21 08:40:27;;;;;;;9.95;7.18;;;;;;;;;;5066461;28;20241;-86
2022/04/21 08:42:54;;;;;;;8.93;6.82;;;;;;;;;;5073510;28;20054;-87
2022/04/21 08:45:24;;;;;;;10.18;7.38;;;;;;;;;;5070123;28;20500;-86
2022/04/21 08:47:50;;;;;;;10.65;7.85;;;;;;;;;;5068173;28;20048;-86
2022/04/21 08:50:19;;;;;;;9.40;7.35;;;;;;;;;;5068368;28;20044;-86
2022/04/21 08:52:46;;;;;;;9.35;6.45;;;;;;;;;;5064727;28;20852;-86
2022/04/21 08:55:12;;;;;;;9.75;6.90;;;;;;;;;;5062309;28;20041;-87
2022/04/21 08:57:39;;;;;;;9.65;6.93;;;;;;;;;;5066669;28;20064;-87
2022/04/21 09:00:07;;;;;;;9.38;6.88;;;;;;;;;;5080397;28;20140;-86
2022/04/21 09:02:35;;;;;;;9.02;6.90;;;;;;;;;;5058984;28;20060;-87
2022/04/21 09:05:02;;;;;;;9.52;6.68;;;;;;;;;;5067951;28;20049;-87
2022/04/21 09:07:30;;;;;;;12.85;7.13;;;;;;;;;;5064980;28;20056;-87
2022/04/21 09:10:01;;;;;;;10.65;6.63;;;;;;;;;;5073205;28;20059;-87
2022/04/21 09:12:28;;;;;;;12.63;7.45;;;;;;;;;;5062420;28;20041;-87
2022/04/21 09:14:54;;;;;;;10.25;6.95;;;;;;;;;;5065634;28;20143;-87
2022/04/21 09:17:21;;;;;;;8.15;6.22;;;;;;;;;;5068055;28;20135;-87
2022/04/21 09:19:56;;;;;;;9.25;6.25;;;;;;;;;;5063731;28;20048;-87
2022/04/21 09:22:23;;;;;;;7.38;6.50;;;;;;;;;;5068244;28;20260;-87
2022/04/21 09:24:53;;;;;;;8.90;6.40;;;;;;;;;;5068061;28;20052;-87
2022/04/21 09:27:20;;;;;;;8.93;6.40;;;;;;;;;;5062170;28;20048;-87
2022/04/21 09:29:46;;;;;;;11.30;7.28;;;;;;;;;;5067685;28;20061;-88
2022/04/21 09:32:16;;;;;;;10.68;6.78;;;;;;;;;;5065207;28;20135;-87
2022/04/21 09:34:48;;;;;;;7.85;6.18;;;;;;;;;;5064835;28;20056;-87
2022/04/21 09:37:19;;;;;;;9.68;6.60;;;;;;;;;;5062987;28;20045;-87
2022/04/21 09:39:50;;;;;;;13.23;7.53;;;;;;;;;;5053673;28;20067;-86
2022/04/21 09:42:25;;;;;;;8.05;5.93;;;;;;;;;;5072726;28;20465;-87
2022/04/21 09:47:35;;;;;;;8.40;5.85;;;;;;;;;;5066023;28;20114;-87
2022/04/21 09:50:12;;;;;;;8.43;6.30;;;;;;;;;;5068356;28;20044;-87
2022/04/21 09:52:41;;;;;;;8.32;6.32;;;;;;;;;;5061622;28;20099;-87
2022/04/21 09:55:20;;;;;;;10.70;6.78;;;;;;;;;;5070150;28;20048;-86
2022/04/21 09:57:51;;;;;;;8.68;6.50;;;;;;;;;;5061607;28;20049;-86
2022/04/21 10:00:20;;;;;;;9.98;6.47;;;;;;;;;;5064259;28;20053;-87
2022/04/21 10:02:47;;;;;;;7.78;6.18;;;;;;;;;;5062613;28;20109;-86
2022/04/21 10:05:14;;;;;;;8.63;5.75;;;;;;;;;;5063112;28;20048;-87
2022/04/21 10:07:42;;;;;;;10.05;6.93;;;;;;;;;;5061775;28;20048;-87
2022/04/21 10:10:10;;;;;;;10.70;6.63;;;;;;;;;;5064610;28;20124;-87
2022/04/21 10:12:37;;;;;;;9.07;6.35;;;;;;;;;;5062060;28;20068;-87
2022/04/21 10:15:06;;;;;;;8.13;5.82;;;;;;;;;;5067190;28;20566;-86
2022/04/21 10:17:36;;;;;;;7.80;6.22;;;;;;;;;;5067058;28;20048;-87
2022/04/21 10:20:04;;;;;;;8.07;6.10;;;;;;;;;;5061947;28;20041;-87
2022/04/21 10:22:33;;;;;;;8.15;5.85;;;;;;;;;;5054695;28;20054;-88
2022/04/21 10:25:01;;;;;;;8.32;6.57;;;;;;;;;;5059132;28;20049;-88
2022/04/21 10:27:38;;;;;;;9.52;6.72;;;;;;;;;;5050103;28;20106;-87
2022/04/21 10:30:14;;;;;;;18.27;7.28;;;;;;;;;;5069763;28;20064;-87
2022/04/21 10:32:52;;;;;;;9.27;6.70;;;;;;;;;;5067967;28;20055;-87
2022/04/21 10:35:20;;;;;;;7.95;6.05;;;;;;;;;;5067486;28;20535;-87
2022/04/21 10:37:47;;;;;;;9.45;6.22;;;;;;;;;;5068626;28;20052;-86
2022/04/21 10:40:21;;;;;;;7.68;5.72;;;;;;;;;;5053634;28;20049;-87
2022/04/21 10:42:59;;;;;;;8.60;6.75;;;;;;;;;;5056201;28;20049;-88
2022/04/21 10:45:28;;;;;;;7.50;6.40;;;;;;;;;;5054212;28;20045;-88
2022/04/21 10:48:05;;;;;;;10.13;6.57;;;;;;;;;;5060380;28;20059;-87
2022/04/21 10:50:39;;;;;;;9.13;6.40;;;;;;;;;;5059791;28;20054;-88
2022/04/21 10:58:53;;;;;;;7.70;6.25;;;;;;;;;;5060732;28;20148;-88
2022/04/21 11:01:31;;;;;;;9.40;6.72;;;;;;;;;;5071912;28;20052;-86
2022/04/21 11:04:25;;;;;;;7.53;6.28;;;;;;;;;;5072234;28;20084;-88
2022/04/21 11:06:54;;;;;;;9.18;6.50;;;;;;;;;;5065853;28;20074;-87
2022/04/21 11:09:44;;;;;;;7.78;6.50;;;;;;;;;;5068086;28;20429;-87
2022/04/21 11:12:37;;;;;;;9.68;6.65;;;;;;;;;;5070176;28;20057;-87
2022/04/21 11:15:35;;;;;;;9.50;7.25;;;;;;;;;;5078575;28;20048;-87
2022/04/21 11:18:08;;;;;;;8.02;6.38;;;;;;;;;;5070150;28;20087;-86
2022/04/21 11:20:35;;;;;;;6.90;5.65;;;;;;;;;;5069565;28;20048;-86
2022/04/21 11:23:03;;;;;;;9.52;7.00;;;;;;;;;;5065302;28;20045;-86
2022/04/21 11:25:33;;;;;;;7.53;6.20;;;;;;;;;;5070411;28;20415;-87
2022/04/21 11:28:06;;;;;;;8.57;7.00;;;;;;;;;;5068947;28;20488;-87
2022/04/21 11:30:35;;;;;;;8.77;5.90;;;;;;;;;;5062916;28;20056;-87
2022/04/21 11:33:10;;;;;;;9.77;6.60;;;;;;;;;;5060443;28;20051;-87
2022/04/21 11:35:39;;;;;;;9.73;6.60;;;;;;;;;;5070035;28;20060;-87
2022/04/21 11:38:06;;;;;;;8.38;6.68;;;;;;;;;;5067864;28;20504;-87
2022/04/21 11:40:35;;;;;;;10.02;7.57;;;;;;;;;;5071845;28;20127;-87
2022/04/21 11:43:05;;;;;;;7.95;6.30;;;;;;;;;;5068665;28;20398;-87
2022/04/21 11:45:35;;;;;;;9.85;6.55;;;;;;;;;;5072567;28;20693;-88
2022/04/21 11:48:18;;;;;;;7.43;6.35;;;;;;;;;;5074669;28;20049;-87
2022/04/21 11:50:46;;;;;;;9.80;6.28;;;;;;;;;;5074321;28;20452;-87
2022/04/21 11:53:18;;;;;;;7.80;6.68;;;;;;;;;;5075368;28;20064;-88
2022/04/21 11:55:45;;;;;;;9.57;7.05;;;;;;;;;;5062261;28;20063;-86
2022/04/21 11:58:12;;;;;;;9.68;6.53;;;;;;;;;;5058431;28;20051;-86
2022/04/21 12:08:53;;;;;;;8.73;6.38;;;;;;;;;;5068869;28;20077;-87
2022/04/21 12:11:21;;;;;;;9.30;6.38;;;;;;;;;;5055554;28;20144;-86
2022/04/21 12:13:49;;;;;;;10.38;5.95;;;;;;;;;;5065517;28;20508;-86
2022/04/21 12:16:40;;;;;;;8.93;6.18;;;;;;;;;;5060594;28;20045;-87
2022/04/21 12:19:32;;;;;;;7.47;6.32;;;;;;;;;;5070283;28;20048;-87
2022/04/21 12:22:00;;;;;;;7.00;5.47;;;;;;;;;;5064632;28;20045;-87
2022/04/21 12:24:32;;;;;;;10.30;6.72;;;;;;;;;;5070994;28;20071;-87
2022/04/21 12:26:59;;;;;;;9.00;6.68;;;;;;;;;;5069808;28;20044;-86
2022/04/21 12:29:31;;;;;;;12.48;7.70;;;;;;;;;;5058037;28;20606;-87
2022/04/21 12:32:02;;;;;;;11.02;6.88;;;;;;;;;;5068422;28;20044;-88
2022/04/21 12:34:31;;;;;;;9.40;6.65;;;;;;;;;;5070977;28;20049;-88
2022/04/21 12:36:58;;;;;;;9.05;6.82;;;;;;;;;;5070578;28;20063;-89
2022/04/21 12:39:28;;;;;;;8.35;6.43;;;;;;;;;;5073079;28;20048;-87
2022/04/21 12:41:55;;;;;;;8.18;6.97;;;;;;;;;;5066607;28;20500;-87
2022/04/21 12:44:25;;;;;;;10.18;6.70;;;;;;;;;;5060427;28;20040;-87
2022/04/21 12:47:04;;;;;;;10.55;6.80;;;;;;;;;;5056337;28;20467;-87
2022/04/21 12:49:52;;;;;;;8.23;6.28;;;;;;;;;;5054492;28;20048;-88
2022/04/21 12:52:33;;;;;;;7.82;6.03;;;;;;;;;;5060149;28;20045;-86
2022/04/21 12:55:00;;;;;;;8.57;6.57;;;;;;;;;;5074204;28;20112;-88
2022/04/21 12:57:27;;;;;;;9.13;6.35;;;;;;;;;;5056795;28;20049;-88
2022/04/21 12:59:54;;;;;;;7.97;6.55;;;;;;;;;;5048537;28;20060;-89
2022/04/21 13:02:21;;;;;;;10.88;6.20;;;;;;;;;;5067833;28;20073;-87
2022/04/21 13:04:48;;;;;;;8.07;6.72;;;;;;;;;;5071111;28;20052;-88
2022/04/21 13:07:16;;;;;;;8.45;6.53;;;;;;;;;;5069765;28;20131;-88
2022/04/21 13:09:43;;;;;;;9.05;6.72;;;;;;;;;;5070065;28;20063;-88
2022/04/21 13:12:10;;;;;;;8.43;5.88;;;;;;;;;;5083630;28;20052;-88
2022/04/21 13:14:37;;;;;;;7.20;5.50;;;;;;;;;;5070726;28;20480;-88
2022/04/21 13:17:09;;;;;;;7.78;5.90;;;;;;;;;;5057867;28;20128;-89
2022/04/21 13:19:37;;;;;;;6.72;5.03;;;;;;;;;;5063889;28;20054;-87
2022/04/21 13:22:04;;;;;;;7.93;6.32;;;;;;;;;;5066049;28;20052;-86
2022/04/21 13:24:33;;;;;;;7.93;5.78;;;;;;;;;;5067824;28;20141;-88
2022/04/21 13:27:01;;;;;;;7.55;6.25;;;;;;;;;;5068866;28;20508;-88
2022/04/21 13:29:28;;;;;;;7.53;6.10;;;;;;;;;;5066344;28;20063;-88
2022/04/21 13:34:39;;;;;;;8.20;6.05;;;;;;;;;;5067924;28;20056;-90
2022/04/21 13:37:06;;;;;;;8.63;5.57;;;;;;;;;;5068217;28;20065;-88
2022/04/21 13:39:36;;;;;;;6.82;5.93;;;;;;;;;;5065891;28;20059;-89
2022/04/21 13:42:03;;;;;;;10.02;5.70;;;;;;;;;;5060767;28;20095;-89
2022/04/21 13:44:30;;;;;;;10.00;6.13;;;;;;;;;;5068197;28;20492;-87
2022/04/21 13:47:03;;;;;;;7.30;5.90;;;;;;;;;;5054692;28;20048;-88
2022/04/21 13:49:29;;;;;;;7.88;5.75;;;;;;;;;;5066305;28;20048;-88
2022/04/21 13:51:56;;;;;;;6.82;5.43;;;;;;;;;;5064924;28;20048;-88
2022/04/21 13:54:22;;;;;;;8.05;4.95;;;;;;;;;;5068323;28;20148;-88
2022/04/21 13:56:51;;;;;;;7.30;5.50;;;;;;;;;;5064131;28;20053;-88
2022/04/21 13:59:18;;;;;;;10.63;5.88;;;;;;;;;;5065951;28;20145;-89
2022/04/21 14:01:45;;;;;;;7.70;5.53;;;;;;;;;;5067547;28;20602;-89
2022/04/21 14:04:11;;;;;;;12.90;6.05;;;;;;;;;;5068775;28;20657;-89
2022/04/21 14:06:38;;;;;;;17.17;6.22;;;;;;;;;;5051846;28;20048;-89
2022/04/21 14:09:04;;;;;;;8.38;5.75;;;;;;;;;;5054699;28;20697;-88
2022/04/21 14:11:31;;;;;;;8.15;5.00;;;;;;;;;;5055310;28;20040;-89
2022/04/21 14:13:59;;;;;;;8.25;4.90;;;;;;;;;;5054295;28;20053;-89
2022/04/21 14:16:26;;;;;;;8.25;5.38;;;;;;;;;;5056441;28;20050;-88
2022/04/21 14:18:52;;;;;;;8.38;5.10;;;;;;;;;;5065895;28;20049;-89
2022/04/21 14:21:20;;;;;;;10.40;5.45;;;;;;;;;;5053854;28;20049;-88
2022/04/21 14:23:46;;;;;;;8.70;5.70;;;;;;;;;;5055260;28;20072;-89
2022/04/21 14:26:15;;;;;;;7.20;5.80;;;;;;;;;;5062873;28;20045;-89
2022/04/21 14:28:42;;;;;;;8.93;5.78;;;;;;;;;;5061078;28;20048;-89
2022/04/21 14:31:11;;;;;;;7.60;5.80;;;;;;;;;;5061127;28;20048;-89
2022/04/21 14:33:38;;;;;;;7.47;5.40;;;;;;;;;;5065694;28;20588;-88
2022/04/21 14:36:05;;;;;;;8.85;5.93;;;;;;;;;;5062552;28;20052;-89
2022/04/21 14:44:05;;;;;;;8.52;5.43;;;;;;;;;;5064582;28;20052;-89
2022/04/21 14:46:36;;;;;;;7.50;5.35;;;;;;;;;;5063399;28;20659;-88
2022/04/21 14:49:04;;;;;;;8.35;5.70;;;;;;;;;;5067559;28;20052;-89
2022/04/21 14:51:31;;;;;;;7.00;5.43;;;;;;;;;;5063435;28;20069;-88
2022/04/21 14:53:57;;;;;;;8.25;5.05;;;;;;;;;;5070944;28;20760;-90
2022/04/21 14:56:24;;;;;;;6.70;5.32;;;;;;;;;;5063538;28;20127;-89
2022/04/21 14:58:51;;;;;;;8.90;6.47;;;;;;;;;;5071055;28;20135;-90
2022/04/21 15:01:18;;;;;;;8.98;5.57;;;;;;;;;;5067147;28;20045;-88
2022/04/21 15:03:46;;;;;;;11.18;6.13;;;;;;;;;;5067878;28;20140;-89
2022/04/21 15:06:13;;;;;;;7.32;5.03;;;;;;;;;;5060751;28;20082;-88
2022/04/21 15:08:40;;;;;;;8.25;6.30;;;;;;;;;;5058225;28;20508;-89
2022/04/21 15:11:07;;;;;;;6.60;5.70;;;;;;;;;;5061803;28;20091;-88
2022/04/21 15:13:34;;;;;;;9.30;5.63;;;;;;;;;;5065379;28;20043;-88
2022/04/21 15:16:01;;;;;;;7.68;5.57;;;;;;;;;;5055997;28;20108;-90
2022/04/21 15:18:36;;;;;;;8.30;5.43;;;;;;;;;;5061477;28;20550;-89
2022/04/21 15:21:04;;;;;;;8.35;6.10;;;;;;;;;;5062223;28;20046;-90
2022/04/21 15:23:31;;;;;;;8.07;5.88;;;;;;;;;;5063940;28;20056;-90
2022/04/21 15:25:58;;;;;;;9.35;6.00;;;;;;;;;;5059603;28;20045;-90
2022/04/21 15:28:25;;;;;;;8.80;5.65;;;;;;;;;;5064642;28;20468;-90
2022/04/21 15:30:52;;;;;;;7.57;5.07;;;;;;;;;;5062865;28;20071;-89
2022/04/21 15:33:19;;;;;;;8.10;5.40;;;;;;;;;;5070651;28;20075;-89
2022/04/21 15:35:46;;;;;;;7.68;4.85;;;;;;;;;;5071563;28;20668;-89
2022/04/21 15:38:16;;;;;;;5.93;4.63;;;;;;;;;;5058925;28;20413;-90
2022/04/21 15:40:43;;;;;;;6.85;4.68;;;;;;;;;;5063006;28;20050;-89
2022/04/21 15:43:10;;;;;;;8.48;5.25;;;;;;;;;;5069105;28;20140;-89
2022/04/21 15:45:37;;;;;;;5.45;3.95;;;;;;;;;;5068375;28;20045;-89
2022/04/21 15:48:04;;;;;;;6.80;4.50;;;;;;;;;;5068932;28;20083;-90
2022/04/21 15:50:31;;;;;;;5.90;4.95;;;;;;;;;;5063557;28;20135;-89